Karlsoy — JXTM — position and weather

sailwx.info

Track history (hours):
 
Tides and Currents Weather Stations Pressure Air Temp Water Temp Dewpoint Dewpoint Depression Visibility Wind Speed Wind Dir Waves Ship Positions

Karlsoy

Last reported at 2018-May-14 16:28 UTC. Time now 2018-Jun-23 05:52 UTC.
Position N 69°50' E 018°35'.
Warning: this ship's position is 39 days out of date.

Length 40 m; draft 3 m.

Type: Passenger vessel. MMSI: 257292400.

Date/timePositionNaut miles runAvg speedWind from/ knotsBaromVisibWave heightAir tempDewpointWater temp
2018-May-14 16:28N 69°50' E 018°35'0 0.0
2018-May-14 15:46N 69°50' E 018°35'4 5.6
2018-May-14 15:02N 69°48' E 018°44'1 9.7
2018-May-14 14:59N 69°48' E 018°43'3 6.4
2018-May-14 14:26N 69°50' E 018°35'0 0.0
2018-May-14 13:32N 69°50' E 018°35'0 5.7
2018-May-14 13:28N 69°51' E 018°36'1 1.1
2018-May-14 13:00N 69°51' E 018°36'4 2.6
2018-May-14 11:18N 69°48' E 018°44'3 9.7
2018-May-14 10:59N 69°49' E 018°37'1 0.4
2018-May-14 08:25N 69°50' E 018°35'3 2.4
2018-May-14 07:13N 69°48' E 018°41'2 9.5
2018-May-14 06:58N 69°50' E 018°36'4 2.8
2018-May-14 05:35N 69°48' E 018°45'0 5.0
2018-May-14 05:29N 69°47' E 018°46'  
Track history (hours):
 
Tides and Currents Weather Stations Pressure Air Temp Water Temp Dewpoint Dewpoint Depression Visibility Wind Speed Wind Dir Waves Ship Positions

Karlsoy

Last reported at 2018-May-14 16:28 UTC. Time now 2018-Jun-23 05:52 UTC.
Position N 69°50' E 018°35'.
Warning: this ship's position is 39 days out of date.

Length 40 m; draft 3 m.

Type: Passenger vessel. MMSI: 257292400.

Date/timePositionNaut miles runAvg speedWind from/ knotsBaromVisibWave heightAir tempDewpointWater temp
2018-May-14 16:28N 69°50' E 018°35'0 0.0
2018-May-14 15:46N 69°50' E 018°35'4 5.6
2018-May-14 15:02N 69°48' E 018°44'1 9.7
2018-May-14 14:59N 69°48' E 018°43'3 6.4
2018-May-14 14:26N 69°50' E 018°35'0 0.0
2018-May-14 13:32N 69°50' E 018°35'0 5.7
2018-May-14 13:28N 69°51' E 018°36'1 1.1
2018-May-14 13:00N 69°51' E 018°36'4 2.6
2018-May-14 11:18N 69°48' E 018°44'3 9.7
2018-May-14 10:59N 69°49' E 018°37'1 0.4
2018-May-14 08:25N 69°50' E 018°35'3 2.4
2018-May-14 07:13N 69°48' E 018°41'2 9.5
2018-May-14 06:58N 69°50' E 018°36'4 2.8
2018-May-14 05:35N 69°48' E 018°45'0 5.0
2018-May-14 05:29N 69°47' E 018°46'  

Dump ship's entire track history